Time;durP1;ratioP1;P1;durP2;ratioP2;P2;SDS_P1;SDS_P2;PMS_P1;PMS_P2;Temp;Humidity;BMP_temperature;BMP_pressure;BME280_temperature;BME280_humidity;BME280_pressure;Samples;Min_cycle;Max_cycle;Signal;HPM_P1;HPM_P2
2021/12/27 00:02:11;;;;;;;8.17;1.70;;;21.80;99.90;;;;;;4992586;28;20227;-68
2021/12/27 00:04:39;;;;;;;11.73;2.13;;;21.50;99.90;;;;;;4997358;28;20185;-68
2021/12/27 00:07:07;;;;;;;9.23;2.10;;;21.40;99.90;;;;;;5000129;28;20218;-67
2021/12/27 00:09:35;;;;;;;8.90;1.87;;;21.40;99.90;;;;;;4995951;28;20181;-67
2021/12/27 00:12:04;;;;;;;7.23;1.70;;;21.60;99.90;;;;;;4997598;28;20183;-67
2021/12/27 00:14:32;;;;;;;7.67;1.70;;;21.80;99.90;;;;;;4992498;28;20546;-67
2021/12/27 00:17:00;;;;;;;7.20;1.90;;;21.90;99.90;;;;;;4992554;28;20638;-68
2021/12/27 00:19:28;;;;;;;9.83;1.77;;;22.00;99.90;;;;;;4975038;28;20193;-68
2021/12/27 00:21:56;;;;;;;8.33;2.30;;;22.60;99.90;;;;;;4998751;28;20179;-69
2021/12/27 00:24:23;;;;;;;8.80;1.60;;;22.20;99.90;;;;;;5002806;28;20203;-68
2021/12/27 00:26:52;;;;;;;8.63;1.80;;;22.60;99.90;;;;;;5009806;28;20259;-66
2021/12/27 00:29:20;;;;;;;4.10;1.60;;;22.70;99.90;;;;;;5011753;28;20191;-68
2021/12/27 00:31:48;;;;;;;7.90;1.60;;;22.70;99.90;;;;;;5009848;28;20276;-69
2021/12/27 00:34:16;;;;;;;7.23;1.67;;;23.00;99.90;;;;;;4993161;28;20192;-70
2021/12/27 00:36:44;;;;;;;10.73;1.90;;;23.10;99.90;;;;;;4992411;28;20652;-69
2021/12/27 00:39:12;;;;;;;7.53;2.10;;;22.90;99.90;;;;;;5001294;28;20274;-68
2021/12/27 00:41:39;;;;;;;9.33;1.60;;;22.80;99.90;;;;;;4989374;28;20193;-70
2021/12/27 00:44:08;;;;;;;10.40;2.00;;;22.90;99.90;;;;;;5001894;28;20264;-68
2021/12/27 00:46:36;;;;;;;6.33;2.03;;;23.30;99.90;;;;;;4992504;28;20177;-71
2021/12/27 00:49:04;;;;;;;11.00;2.10;;;23.70;99.90;;;;;;4992993;28;20629;-69
2021/12/27 00:51:31;;;;;;;12.80;2.30;;;23.40;99.90;;;;;;5009817;28;20577;-69
2021/12/27 00:53:59;;;;;;;8.17;1.63;;;24.00;99.90;;;;;;5011525;28;20190;-70
2021/12/27 00:56:27;;;;;;;6.77;2.20;;;23.80;99.90;;;;;;5011681;28;20200;-69
2021/12/27 00:58:55;;;;;;;8.57;1.90;;;24.00;99.90;;;;;;4997495;28;20184;-69
2021/12/27 01:01:22;;;;;;;8.53;2.00;;;23.50;99.90;;;;;;5011707;28;20177;-68
2021/12/27 01:03:50;;;;;;;8.17;1.70;;;23.30;99.90;;;;;;5011643;28;20182;-69
2021/12/27 01:06:18;;;;;;;11.50;2.23;;;24.00;99.90;;;;;;5011645;28;20256;-69
2021/12/27 01:08:46;;;;;;;6.60;1.87;;;24.20;99.90;;;;;;5011764;28;20244;-69
2021/12/27 01:14:27;;;;;;;11.27;2.03;;;23.50;99.90;;;;;;4992151;28;20652;-71
2021/12/27 01:16:48;;;;;;;11.20;2.20;;;23.20;99.90;;;;;;4995310;28;20186;-70
2021/12/27 01:19:16;;;;;;;13.97;2.40;;;23.20;99.90;;;;;;5010860;28;20189;-69
2021/12/27 01:21:43;;;;;;;12.67;2.70;;;23.60;99.90;;;;;;5015035;28;20243;-70
2021/12/27 01:24:11;;;;;;;15.47;2.73;;;24.10;99.90;;;;;;5002676;28;20935;-70
2021/12/27 01:26:39;;;;;;;8.77;2.10;;;24.30;99.90;;;;;;4995249;28;20178;-70
2021/12/27 01:29:08;;;;;;;12.77;2.63;;;23.80;99.90;;;;;;4995575;28;20631;-70
2021/12/27 01:31:35;;;;;;;12.43;2.20;;;23.90;99.90;;;;;;4995180;28;20234;-70
2021/12/27 01:34:03;;;;;;;9.17;2.00;;;23.70;99.90;;;;;;4995376;28;20183;-69
2021/12/27 01:36:32;;;;;;;9.00;2.43;;;23.40;99.90;;;;;;4995114;28;20522;-71
2021/12/27 01:39:01;;;;;;;14.63;3.13;;;23.70;99.90;;;;;;4995351;28;20213;-70
2021/12/27 01:41:29;;;;;;;9.93;2.60;;;23.90;99.90;;;;;;5004785;28;20687;-70
2021/12/27 01:43:57;;;;;;;9.83;2.43;;;23.60;99.90;;;;;;5014790;28;20264;-70
2021/12/27 01:46:28;;;;;;;11.97;3.00;;;23.80;99.90;;;;;;5012861;28;20635;-69
2021/12/27 01:48:57;;;;;;;11.50;2.57;;;24.20;99.90;;;;;;5014696;28;20178;-70
2021/12/27 01:51:28;;;;;;;11.60;2.67;;;24.30;99.90;;;;;;4991062;28;20214;-69
2021/12/27 01:53:57;;;;;;;11.90;2.90;;;24.40;99.90;;;;;;5014603;28;20228;-69
2021/12/27 01:56:25;;;;;;;9.40;2.20;;;24.30;99.90;;;;;;5014584;28;20193;-70
2021/12/27 01:58:54;;;;;;;6.87;2.27;;;23.60;99.90;;;;;;5014496;28;20185;-71
2021/12/27 02:01:23;;;;;;;6.57;1.90;;;23.60;99.90;;;;;;4995808;28;20532;-70
2021/12/27 02:03:52;;;;;;;8.70;2.00;;;23.90;99.90;;;;;;4977444;28;20201;-70
2021/12/27 02:06:20;;;;;;;8.70;2.53;;;24.40;99.90;;;;;;4994716;28;20214;-69
2021/12/27 02:08:50;;;;;;;7.83;2.37;;;24.80;99.90;;;;;;4994890;28;20189;-70
2021/12/27 02:11:20;;;;;;;9.40;2.43;;;24.70;99.90;;;;;;4994661;28;20573;-69
2021/12/27 02:13:48;;;;;;;9.40;2.90;;;24.70;99.90;;;;;;5001559;28;20197;-69
2021/12/27 02:16:18;;;;;;;8.00;2.30;;;24.60;99.90;;;;;;5014173;28;20640;-70
2021/12/27 02:18:46;;;;;;;8.13;1.93;;;24.40;99.90;;;;;;5005185;28;20236;-70
2021/12/27 02:21:15;;;;;;;8.03;2.00;;;24.60;99.90;;;;;;4994569;28;20269;-70
2021/12/27 02:23:43;;;;;;;13.23;3.20;;;24.80;99.90;;;;;;5006143;28;20525;-72
2021/12/27 02:26:11;;;;;;;9.60;2.50;;;24.80;99.90;;;;;;5013818;28;20200;-70
2021/12/27 02:28:39;;;;;;;11.97;2.87;;;25.10;99.90;;;;;;5013664;28;20611;-69
2021/12/27 02:31:07;;;;;;;7.87;2.40;;;25.30;99.90;;;;;;5013680;28;20226;-69
2021/12/27 02:33:40;;;;;;;12.60;2.20;;;24.80;99.90;;;;;;4988726;28;20193;-71
2021/12/27 02:36:09;;;;;;;10.30;2.27;;;25.00;99.90;;;;;;4994326;28;20663;-68
2021/12/27 02:38:39;;;;;;;5.97;2.23;;;25.10;99.90;;;;;;4994391;28;20652;-68
2021/12/27 02:41:08;;;;;;;9.80;1.90;;;25.00;99.90;;;;;;4996623;28;20551;-68
2021/12/27 02:43:39;;;;;;;6.53;2.03;;;24.90;99.90;;;;;;4994098;28;20175;-68
2021/12/27 02:46:09;;;;;;;7.50;2.17;;;25.20;99.90;;;;;;4994189;28;20543;-69
2021/12/27 02:48:46;;;;;;;10.27;2.37;;;25.70;99.90;;;;;;4976905;28;20214;-69
2021/12/27 02:51:18;;;;;;;6.67;2.30;;;25.50;99.90;;;;;;4994017;28;20229;-68
2021/12/27 02:53:47;;;;;;;7.30;1.80;;;25.40;99.90;;;;;;4994037;28;20270;-69
2021/12/27 02:56:15;;;;;;;9.93;2.20;;;25.40;99.90;;;;;;4993930;28;20708;-69
2021/12/27 02:58:44;;;;;;;7.97;1.93;;;25.60;99.90;;;;;;4993102;28;20282;-68
2021/12/27 03:01:23;;;;;;;6.53;2.00;;;25.20;99.90;;;;;;4992660;28;20194;-68
2021/12/27 03:03:52;;;;;;;10.73;1.63;;;25.10;99.90;;;;;;4993786;28;20370;-71
2021/12/27 03:06:20;;;;;;;10.60;2.77;;;25.20;99.90;;;;;;4993614;28;20187;-69
2021/12/27 03:08:49;;;;;;;11.20;2.40;;;25.30;99.90;;;;;;4994536;28;20269;-70
2021/12/27 03:11:18;;;;;;;10.60;2.30;;;25.40;99.90;;;;;;5011417;28;20174;-70
2021/12/27 03:13:50;;;;;;;11.40;2.47;;;25.10;99.90;;;;;;5013283;28;20174;-70
2021/12/27 03:16:20;;;;;;;8.33;1.77;;;24.70;99.90;;;;;;5013085;28;20190;-69
2021/12/27 03:18:54;;;;;;;7.13;1.80;;;24.80;99.90;;;;;;4995585;28;20186;-69
2021/12/27 03:21:22;;;;;;;8.73;2.13;;;24.40;99.90;;;;;;5013164;28;20612;-68
2021/12/27 03:23:50;;;;;;;8.90;1.80;;;24.40;99.90;;;;;;5012668;28;20196;-68
2021/12/27 03:26:17;;;;;;;10.20;2.03;;;24.30;99.90;;;;;;5002717;28;20226;-70
2021/12/27 03:28:45;;;;;;;17.77;1.83;;;24.20;99.90;;;;;;4995788;28;20264;-69
2021/12/27 03:31:15;;;;;;;7.37;1.70;;;24.00;99.90;;;;;;5012655;28;20232;-71
2021/12/27 03:33:42;;;;;;;11.90;1.93;;;24.00;99.90;;;;;;5012782;28;20264;-70
2021/12/27 03:36:14;;;;;;;8.50;2.27;;;23.90;99.90;;;;;;5012694;28;20224;-68
2021/12/27 03:38:52;;;;;;;12.80;2.67;;;23.90;99.90;;;;;;4994425;28;20190;-66
2021/12/27 03:41:24;;;;;;;10.03;2.17;;;24.10;99.90;;;;;;5009589;28;20244;-71
2021/12/27 03:43:51;;;;;;;9.57;1.97;;;23.90;99.90;;;;;;4995232;28;20193;-71
2021/12/27 03:46:19;;;;;;;8.03;1.70;;;24.00;99.90;;;;;;5000896;28;20197;-69
2021/12/27 03:48:46;;;;;;;8.10;1.83;;;24.20;99.90;;;;;;5003342;28;20221;-69
2021/12/27 03:51:14;;;;;;;4.83;1.70;;;24.30;99.90;;;;;;5004552;28;20175;-68
2021/12/27 03:53:41;;;;;;;6.40;1.47;;;24.40;99.90;;;;;;5002826;28;20264;-68
2021/12/27 03:56:09;;;;;;;5.97;1.90;;;24.70;99.90;;;;;;4984955;28;20183;-68
2021/12/27 03:58:54;;;;;;;6.03;2.40;;;24.80;99.90;;;;;;5012198;28;20214;-67
2021/12/27 04:01:23;;;;;;;7.87;1.70;;;24.90;99.90;;;;;;5012475;28;20173;-67
2021/12/27 04:03:56;;;;;;;12.10;2.33;;;25.10;99.90;;;;;;4983523;28;20194;-68
2021/12/27 04:06:26;;;;;;;5.77;1.47;;;25.20;99.90;;;;;;4992608;28;20241;-68
2021/12/27 04:08:54;;;;;;;5.87;1.30;;;25.00;99.90;;;;;;4992633;28;20229;-66
2021/12/27 04:11:21;;;;;;;6.23;1.33;;;24.70;99.90;;;;;;4993592;28;20182;-67
2021/12/27 04:13:49;;;;;;;5.27;1.30;;;24.40;99.90;;;;;;4992605;28;20679;-68
2021/12/27 04:16:17;;;;;;;6.10;1.40;;;24.30;99.90;;;;;;4991662;28;20281;-67
2021/12/27 04:18:44;;;;;;;4.13;1.27;;;24.10;99.90;;;;;;4992672;28;20179;-67
2021/12/27 04:21:11;;;;;;;5.10;1.40;;;24.20;99.90;;;;;;4994506;28;20182;-67
2021/12/27 04:23:39;;;;;;;5.47;1.43;;;24.40;99.90;;;;;;5016476;28;20189;-67
2021/12/27 04:26:06;;;;;;;5.43;1.67;;;24.40;99.90;;;;;;5012166;28;20173;-68
2021/12/27 04:28:34;;;;;;;3.77;1.43;;;24.60;99.90;;;;;;4991148;28;20770;-68
2021/12/27 04:31:02;;;;;;;4.80;3.40;;;24.80;99.90;;;;;;4992292;28;20317;-69
2021/12/27 04:33:32;;;;;;;7.57;2.40;;;24.80;99.90;;;;;;4992397;28;20198;-69
2021/12/27 04:35:59;;;;;;;4.43;2.00;;;24.60;99.90;;;;;;4992489;28;20175;-70
2021/12/27 04:38:27;;;;;;;7.77;3.20;;;24.20;99.90;;;;;;5001161;28;20618;-69
2021/12/27 04:40:55;;;;;;;3.53;0.90;;;25.20;99.90;;;;;;4994388;28;21028;-68
2021/12/27 04:43:24;;;;;;;4.13;2.13;;;25.30;99.90;;;;;;5012285;28;20185;-69
2021/12/27 04:45:54;;;;;;;6.07;1.00;;;24.70;99.90;;;;;;4995093;28;20209;-71
2021/12/27 04:48:24;;;;;;;3.57;1.53;;;24.30;99.90;;;;;;4992566;28;20229;-68
2021/12/27 04:50:52;;;;;;;9.17;4.20;;;24.10;99.90;;;;;;4996495;28;20200;-68
2021/12/27 04:53:20;;;;;;;7.77;4.23;;;24.10;99.90;;;;;;4996552;28;20193;-71
2021/12/27 04:55:47;;;;;;;7.83;3.50;;;23.60;99.90;;;;;;4996231;28;20182;-71
2021/12/27 04:58:16;;;;;;;3.50;1.43;;;23.70;99.90;;;;;;5013634;28;20181;-70
2021/12/27 05:00:44;;;;;;;4.77;1.40;;;23.40;99.90;;;;;;5015582;28;20548;-71
2021/12/27 05:03:12;;;;;;;5.27;2.00;;;24.00;99.90;;;;;;5015560;28;20182;-71
2021/12/27 05:05:43;;;;;;;5.80;1.90;;;24.40;99.90;;;;;;5015447;28;20560;-70
2021/12/27 05:08:11;;;;;;;3.70;0.77;;;24.70;99.90;;;;;;5015416;28;20228;-71
2021/12/27 05:10:39;;;;;;;1.53;0.50;;;24.30;99.90;;;;;;5015969;28;20236;-71
2021/12/27 05:13:06;;;;;;;1.93;0.50;;;23.40;99.90;;;;;;5009921;28;20186;-69
2021/12/27 05:15:33;;;;;;;0.67;0.40;;;22.80;99.90;;;;;;4995933;28;20297;-71
2021/12/27 05:18:01;;;;;;;0.47;0.37;;;22.90;99.90;;;;;;4996034;28;20185;-70
2021/12/27 05:20:28;;;;;;;1.30;0.50;;;23.20;99.90;;;;;;4996827;28;20553;-70
2021/12/27 05:22:55;;;;;;;0.47;0.30;;;23.20;99.90;;;;;;4996826;28;20235;-71
2021/12/27 05:25:23;;;;;;;2.30;0.60;;;22.70;99.90;;;;;;5001381;28;20214;-70
2021/12/27 05:27:50;;;;;;;1.80;0.40;;;22.80;99.90;;;;;;5014909;28;20691;-70
2021/12/27 05:30:19;;;;;;;0.63;0.37;;;22.80;99.90;;;;;;5014990;28;20265;-70
2021/12/27 05:32:47;;;;;;;1.10;0.43;;;22.70;99.90;;;;;;5013838;28;20181;-70
2021/12/27 05:35:16;;;;;;;1.73;0.63;;;22.20;99.90;;;;;;5014845;28;20189;-72
2021/12/27 05:37:46;;;;;;;0.53;0.30;;;21.90;99.90;;;;;;5013935;28;20182;-71
2021/12/27 05:40:20;;;;;;;0.80;0.37;;;21.00;99.90;;;;;;4997318;28;20184;-69
2021/12/27 05:42:49;;;;;;;1.03;0.40;;;20.50;99.90;;;;;;5014449;28;20693;-69
2021/12/27 05:45:18;;;;;;;2.40;0.80;;;20.40;99.90;;;;;;4978103;28;20186;-69
2021/12/27 05:47:46;;;;;;;1.83;0.70;;;20.00;99.90;;;;;;4995173;28;20552;-69
2021/12/27 05:50:16;;;;;;;6.43;0.80;;;19.60;99.90;;;;;;5000412;28;20639;-70
2021/12/27 05:52:44;;;;;;;6.20;1.20;;;19.60;99.90;;;;;;5014671;28;20186;-69
2021/12/27 05:55:14;;;;;;;5.57;1.07;;;19.60;99.90;;;;;;5015059;28;20188;-72
2021/12/27 05:57:42;;;;;;;8.77;1.13;;;19.60;99.90;;;;;;5013398;28;20195;-69
2021/12/27 06:00:12;;;;;;;5.37;1.40;;;19.60;99.90;;;;;;5014452;28;20268;-71
2021/12/27 06:02:41;;;;;;;4.67;1.20;;;19.60;99.90;;;;;;4997417;28;20276;-71
2021/12/27 06:05:09;;;;;;;8.63;2.07;;;19.60;99.90;;;;;;5014587;28;20550;-69
2021/12/27 06:07:37;;;;;;;6.27;1.10;;;19.60;99.90;;;;;;5014173;28;20233;-71
2021/12/27 06:10:06;;;;;;;6.57;1.70;;;19.80;99.90;;;;;;5014114;28;20187;-70
2021/12/27 06:12:34;;;;;;;4.37;1.20;;;19.80;99.90;;;;;;4994740;28;20277;-71
2021/12/27 06:15:03;;;;;;;8.33;1.33;;;20.00;99.90;;;;;;4993723;28;20214;-71
2021/12/27 06:17:32;;;;;;;5.80;1.30;;;20.10;99.90;;;;;;4977507;28;20210;-72
2021/12/27 06:20:04;;;;;;;8.20;1.80;;;20.10;99.90;;;;;;5014234;28;20187;-70
2021/12/27 06:22:33;;;;;;;6.10;1.47;;;20.00;99.90;;;;;;5014266;28;20178;-70
2021/12/27 06:25:03;;;;;;;6.53;1.20;;;19.90;99.90;;;;;;5014091;28;20557;-71
2021/12/27 06:27:32;;;;;;;7.60;1.40;;;19.90;99.90;;;;;;5012262;28;20224;-71
2021/12/27 06:30:10;;;;;;;6.20;2.30;;;19.90;99.90;;;;;;5013791;28;20230;-72
2021/12/27 06:32:38;;;;;;;8.20;2.13;;;20.00;99.90;;;;;;4977080;28;20197;-71
2021/12/27 06:35:10;;;;;;;8.27;1.53;;;19.90;99.90;;;;;;5009715;28;20189;-71
2021/12/27 06:37:40;;;;;;;8.60;1.50;;;19.90;99.90;;;;;;5013846;28;20268;-70
2021/12/27 06:40:09;;;;;;;11.57;2.03;;;19.90;99.90;;;;;;5013342;28;20245;-70
2021/12/27 06:42:37;;;;;;;8.90;1.90;;;20.00;99.90;;;;;;5013688;28;20191;-69
2021/12/27 06:45:05;;;;;;;14.07;2.13;;;20.00;99.90;;;;;;5013685;28;20177;-70
2021/12/27 06:47:37;;;;;;;7.37;1.80;;;20.00;99.90;;;;;;5011567;28;20229;-70
2021/12/27 06:50:07;;;;;;;8.93;1.90;;;19.80;99.90;;;;;;4995892;28;20273;-70
2021/12/27 06:52:35;;;;;;;7.40;1.67;;;19.90;99.90;;;;;;5012362;28;20280;-69
2021/12/27 06:55:04;;;;;;;10.20;1.90;;;19.80;99.90;;;;;;5000631;28;20248;-70
2021/12/27 06:57:32;;;;;;;9.23;1.80;;;19.80;99.90;;;;;;4976264;28;20227;-70
2021/12/27 07:00:01;;;;;;;6.00;1.70;;;19.80;99.90;;;;;;4976238;28;20186;-71
2021/12/27 07:02:29;;;;;;;7.73;1.80;;;19.80;99.90;;;;;;5004790;28;20204;-70
2021/12/27 07:04:56;;;;;;;13.80;2.53;;;19.80;99.90;;;;;;5013343;28;20211;-70
2021/12/27 07:07:27;;;;;;;9.77;1.87;;;19.70;99.90;;;;;;5013239;28;20297;-70
2021/12/27 07:09:54;;;;;;;8.70;1.90;;;19.60;99.90;;;;;;5013016;28;20285;-69
2021/12/27 07:12:22;;;;;;;9.37;3.10;;;19.50;99.90;;;;;;4994728;28;20231;-70
2021/12/27 07:14:50;;;;;;;8.83;1.83;;;19.50;99.90;;;;;;5013073;28;20576;-70
2021/12/27 07:17:18;;;;;;;6.37;1.60;;;19.30;99.90;;;;;;5011507;28;20210;-70
2021/12/27 07:19:45;;;;;;;9.60;2.00;;;19.00;99.90;;;;;;5012998;28;20190;-70
2021/12/27 07:22:15;;;;;;;6.43;1.93;;;18.90;99.90;;;;;;5006123;28;20222;-70
2021/12/27 07:24:43;;;;;;;13.63;2.20;;;18.70;99.90;;;;;;4992263;28;20195;-69
2021/12/27 07:27:14;;;;;;;8.47;2.00;;;18.70;99.90;;;;;;4993102;28;20260;-70
2021/12/27 07:29:42;;;;;;;15.33;3.10;;;18.80;99.90;;;;;;4994784;28;20223;-69
2021/12/27 07:32:09;;;;;;;8.47;1.83;;;18.90;99.90;;;;;;4988505;28;20230;-69
2021/12/27 07:34:37;;;;;;;12.57;2.67;;;19.00;99.90;;;;;;4993262;28;20582;-69
2021/12/27 07:37:05;;;;;;;9.53;1.90;;;19.00;99.90;;;;;;4993191;28;20178;-70
2021/12/27 07:39:33;;;;;;;11.63;2.17;;;18.90;99.90;;;;;;4992967;28;20721;-68
2021/12/27 07:42:06;;;;;;;10.23;2.13;;;18.90;99.90;;;;;;4992836;28;20186;-70
2021/12/27 07:44:34;;;;;;;13.87;2.27;;;18.90;99.90;;;;;;4991956;28;20179;-69
2021/12/27 07:47:03;;;;;;;5.90;1.90;;;18.70;99.90;;;;;;4992965;28;20664;-70
2021/12/27 07:49:31;;;;;;;9.27;1.80;;;18.80;99.90;;;;;;4993522;28;20240;-70
2021/12/27 07:51:59;;;;;;;14.57;2.47;;;18.70;99.90;;;;;;5011264;28;20186;-69
2021/12/27 07:54:27;;;;;;;10.07;2.10;;;18.70;99.90;;;;;;5012510;28;20186;-69
2021/12/27 07:56:56;;;;;;;6.73;2.00;;;18.60;99.90;;;;;;5012477;28;20541;-70
2021/12/27 07:59:23;;;;;;;7.77;1.50;;;18.50;99.90;;;;;;5012334;28;20178;-70
2021/12/27 08:01:51;;;;;;;6.70;1.77;;;18.60;99.90;;;;;;5012325;28;20204;-68
2021/12/27 08:04:19;;;;;;;11.00;2.00;;;18.50;99.90;;;;;;5012270;28;20181;-68
2021/12/27 08:06:47;;;;;;;9.33;1.80;;;18.40;99.90;;;;;;5002907;28;20184;-69
2021/12/27 08:09:15;;;;;;;6.10;1.80;;;18.40;99.90;;;;;;4992821;28;20198;-71
2021/12/27 08:11:43;;;;;;;7.10;1.90;;;18.30;99.90;;;;;;4992477;28;20544;-70
2021/12/27 08:14:11;;;;;;;8.80;1.77;;;18.40;99.90;;;;;;4991577;28;20249;-69
2021/12/27 08:16:39;;;;;;;9.83;1.73;;;18.40;99.90;;;;;;4992442;28;20193;-67
2021/12/27 08:19:06;;;;;;;10.73;2.23;;;18.40;99.90;;;;;;4989555;28;20182;-67
2021/12/27 08:21:37;;;;;;;7.30;1.70;;;18.40;99.90;;;;;;5012155;28;20200;-69
2021/12/27 08:24:09;;;;;;;6.47;1.53;;;18.50;99.90;;;;;;5013466;28;20488;-69
2021/12/27 08:26:37;;;;;;;7.70;1.80;;;18.50;99.90;;;;;;4998309;28;20178;-68
2021/12/27 08:29:08;;;;;;;12.10;2.53;;;18.50;99.90;;;;;;4996579;28;20723;-69
2021/12/27 08:31:36;;;;;;;7.37;2.17;;;18.40;99.90;;;;;;4996288;28;20222;-68
2021/12/27 08:34:04;;;;;;;10.73;2.67;;;18.50;99.90;;;;;;4996437;28;20261;-68
2021/12/27 08:36:32;;;;;;;8.67;2.10;;;18.60;99.90;;;;;;4996619;28;20644;-69
2021/12/27 08:38:59;;;;;;;11.17;2.50;;;18.50;99.90;;;;;;4996528;28;20178;-68
2021/12/27 08:41:30;;;;;;;5.27;1.67;;;18.50;99.90;;;;;;5001940;28;20184;-68
2021/12/27 08:44:03;;;;;;;9.33;2.13;;;18.50;99.90;;;;;;5014716;28;20643;-69
2021/12/27 08:46:32;;;;;;;13.03;2.47;;;18.50;99.90;;;;;;5004753;28;20191;-69
2021/12/27 08:49:00;;;;;;;5.60;1.80;;;18.40;99.90;;;;;;4996152;28;20210;-68
2021/12/27 08:51:28;;;;;;;10.53;1.73;;;18.30;99.90;;;;;;4995952;28;20191;-67
2021/12/27 08:53:56;;;;;;;8.30;2.50;;;18.30;99.90;;;;;;4995950;28;20600;-68
2021/12/27 08:56:24;;;;;;;9.27;2.00;;;18.20;99.90;;;;;;4996132;28;20171;-69
2021/12/27 08:58:52;;;;;;;9.03;2.13;;;18.20;99.90;;;;;;4996102;28;20202;-67
2021/12/27 09:01:20;;;;;;;10.07;1.90;;;18.20;99.90;;;;;;5012870;28;20191;-69
2021/12/27 09:03:48;;;;;;;12.60;2.67;;;18.20;99.90;;;;;;5013827;28;20220;-69
2021/12/27 09:06:16;;;;;;;8.97;1.90;;;18.10;99.90;;;;;;5015668;28;20177;-70
2021/12/27 09:08:43;;;;;;;9.93;2.20;;;18.00;99.90;;;;;;5002926;28;20274;-69
2021/12/27 09:11:11;;;;;;;12.57;2.17;;;18.10;99.90;;;;;;4995796;28;20179;-69
2021/12/27 09:13:39;;;;;;;6.33;1.33;;;18.10;99.90;;;;;;5000127;28;20553;-69
2021/12/27 09:16:10;;;;;;;8.60;1.60;;;18.10;99.90;;;;;;5015373;28;20179;-70
2021/12/27 09:18:38;;;;;;;12.33;2.57;;;18.00;99.90;;;;;;5015800;28;20664;-68
2021/12/27 09:21:07;;;;;;;9.00;1.80;;;18.00;99.90;;;;;;5038022;28;20183;-69
2021/12/27 09:23:34;;;;;;;9.63;2.27;;;18.10;99.90;;;;;;5023758;28;20170;-68
2021/12/27 09:26:03;;;;;;;6.13;1.80;;;18.20;99.90;;;;;;5015212;28;20215;-68
2021/12/27 09:28:30;;;;;;;10.30;2.27;;;18.20;99.90;;;;;;5002794;28;20272;-69
2021/12/27 09:30:59;;;;;;;6.27;1.83;;;18.10;99.90;;;;;;4995298;28;20223;-71
2021/12/27 09:33:27;;;;;;;7.37;1.83;;;18.00;99.90;;;;;;4995446;28;20557;-68
2021/12/27 09:35:55;;;;;;;8.97;2.03;;;18.10;99.90;;;;;;4994302;28;20202;-68
2021/12/27 09:38:22;;;;;;;8.23;1.67;;;18.10;99.90;;;;;;4995426;28;20548;-70
2021/12/27 09:40:50;;;;;;;9.20;1.97;;;18.00;99.90;;;;;;4995459;28;20586;-70
2021/12/27 09:43:18;;;;;;;9.93;1.90;;;17.90;99.90;;;;;;5014208;28;20283;-69
2021/12/27 09:45:46;;;;;;;7.63;1.47;;;17.70;99.90;;;;;;5014941;28;20178;-72
2021/12/27 09:48:14;;;;;;;5.13;1.23;;;17.70;99.90;;;;;;5004788;28;20221;-69
2021/12/27 09:50:52;;;;;;;3.80;1.30;;;17.60;99.90;;;;;;5004277;28;20253;-70
2021/12/27 09:53:20;;;;;;;7.97;1.67;;;17.60;99.90;;;;;;5004403;28;20183;-70
2021/12/27 09:55:47;;;;;;;8.60;2.30;;;17.70;99.90;;;;;;5003429;28;20209;-70
2021/12/27 09:58:15;;;;;;;9.13;1.80;;;17.80;99.90;;;;;;5005576;28;20189;-70
2021/12/27 10:00:43;;;;;;;5.10;1.50;;;17.70;99.90;;;;;;4994980;28;20178;-71
2021/12/27 10:03:11;;;;;;;7.40;1.67;;;17.70;99.90;;;;;;4977510;28;20274;-70
2021/12/27 10:05:39;;;;;;;7.40;1.70;;;17.70;99.90;;;;;;4994822;28;20234;-69
2021/12/27 10:08:07;;;;;;;4.87;1.27;;;17.60;99.90;;;;;;4994793;28;20697;-72
2021/12/27 10:10:36;;;;;;;6.77;1.27;;;17.60;99.90;;;;;;5008286;28;20173;-70
2021/12/27 10:13:12;;;;;;;10.17;1.77;;;17.60;99.90;;;;;;5014219;28;20536;-69
2021/12/27 10:15:43;;;;;;;10.57;1.83;;;17.50;99.90;;;;;;5014053;28;20258;-69
2021/12/27 10:18:14;;;;;;;9.43;1.70;;;17.50;99.90;;;;;;5014143;28;20655;-69
2021/12/27 10:20:43;;;;;;;5.07;1.37;;;17.40;99.90;;;;;;5000068;28;20652;-69
2021/12/27 10:23:12;;;;;;;5.93;1.30;;;17.30;99.90;;;;;;4994565;28;20186;-69
2021/12/27 10:25:41;;;;;;;8.03;1.77;;;17.40;99.90;;;;;;4994372;28;20590;-69
2021/12/27 10:28:08;;;;;;;4.70;1.23;;;17.50;99.90;;;;;;5004399;28;20222;-68
2021/12/27 10:30:44;;;;;;;8.10;2.00;;;17.50;99.90;;;;;;5013782;28;20214;-69
2021/12/27 10:33:24;;;;;;;5.37;1.80;;;17.40;99.90;;;;;;5014029;28;20186;-69
2021/12/27 10:35:58;;;;;;;14.87;1.97;;;17.40;99.90;;;;;;5013836;28;20678;-68
2021/12/27 10:38:36;;;;;;;6.53;1.37;;;17.40;99.90;;;;;;5002503;28;20183;-70
2021/12/27 10:41:11;;;;;;;6.23;2.10;;;17.40;99.90;;;;;;4994290;28;20197;-68
2021/12/27 10:43:38;;;;;;;8.93;1.93;;;17.40;99.90;;;;;;4995803;28;20632;-69
2021/12/27 10:46:09;;;;;;;8.57;2.20;;;17.40;99.90;;;;;;5013734;28;20174;-69
2021/12/27 10:48:49;;;;;;;9.63;1.77;;;17.50;99.90;;;;;;5013046;28;20221;-69
2021/12/27 10:51:17;;;;;;;11.50;2.10;;;17.50;99.90;;;;;;5013646;28;20181;-69
2021/12/27 10:53:51;;;;;;;7.03;2.10;;;17.60;99.90;;;;;;5013425;28;20308;-70
2021/12/27 10:56:22;;;;;;;9.77;1.63;;;17.60;99.90;;;;;;4990265;28;20183;-69
2021/12/27 10:58:53;;;;;;;5.80;1.30;;;17.60;99.90;;;;;;4993815;28;20177;-69
2021/12/27 11:01:26;;;;;;;9.43;1.70;;;17.50;99.90;;;;;;4993926;28;20511;-70
2021/12/27 11:03:59;;;;;;;8.17;1.70;;;17.50;99.90;;;;;;4992504;28;20660;-70
2021/12/27 11:06:29;;;;;;;8.80;1.60;;;17.40;99.90;;;;;;4976427;28;20714;-70
2021/12/27 11:08:58;;;;;;;11.87;2.00;;;17.40;99.90;;;;;;4993748;28;20214;-69
2021/12/27 11:11:27;;;;;;;6.57;1.83;;;17.40;99.90;;;;;;4994671;28;20205;-71
2021/12/27 11:13:59;;;;;;;9.20;1.70;;;17.30;99.90;;;;;;4993722;28;20190;-69
2021/12/27 11:16:28;;;;;;;6.87;1.30;;;17.20;99.90;;;;;;4993756;28;20664;-69
2021/12/27 11:18:57;;;;;;;6.80;1.33;;;17.20;99.90;;;;;;4981357;28;20556;-69
2021/12/27 11:21:34;;;;;;;6.07;1.47;;;17.20;99.90;;;;;;4993594;28;20175;-69
2021/12/27 11:24:03;;;;;;;4.60;1.60;;;17.20;99.90;;;;;;4993482;28;20184;-69
2021/12/27 11:26:34;;;;;;;6.40;1.23;;;17.20;99.90;;;;;;4993873;28;20192;-70
2021/12/27 11:29:17;;;;;;;10.63;1.60;;;17.20;99.90;;;;;;4993475;28;20229;-69
2021/12/27 11:31:47;;;;;;;4.53;1.37;;;17.20;99.90;;;;;;4993227;28;20285;-69
2021/12/27 11:34:17;;;;;;;9.67;1.63;;;17.10;99.90;;;;;;4993099;28;20175;-69
2021/12/27 11:36:48;;;;;;;12.70;1.87;;;17.00;99.90;;;;;;5000782;28;20181;-71
2021/12/27 11:39:24;;;;;;;10.03;2.17;;;17.00;99.90;;;;;;5012770;28;20179;-71
2021/12/27 11:42:17;;;;;;;7.30;1.60;;;17.10;99.90;;;;;;5014010;28;20170;-73
2021/12/27 11:44:53;;;;;;;9.13;1.70;;;17.00;99.90;;;;;;5013757;28;20264;-70
2021/12/27 11:47:28;;;;;;;8.10;1.10;;;17.00;99.90;;;;;;5013863;28;20209;-72
2021/12/27 11:49:59;;;;;;;9.20;1.63;;;17.00;99.90;;;;;;5013821;28;20188;-70
2021/12/27 11:52:32;;;;;;;7.40;1.47;;;17.00;99.90;;;;;;5014325;28;20174;-70
2021/12/27 11:55:05;;;;;;;8.37;1.43;;;17.00;99.90;;;;;;4994293;28;20197;-71
2021/12/27 11:57:52;;;;;;;11.90;2.10;;;17.00;99.90;;;;;;4994015;28;20648;-71
2021/12/27 12:00:26;;;;;;;7.33;1.30;;;16.90;99.90;;;;;;4993752;28;20191;-70
2021/12/27 12:03:01;;;;;;;8.43;1.50;;;17.00;99.90;;;;;;4994307;28;20708;-69
2021/12/27 12:05:43;;;;;;;5.73;1.37;;;17.10;99.90;;;;;;5001760;28;20681;-71
2021/12/27 12:08:32;;;;;;;8.77;1.63;;;17.10;99.90;;;;;;5001484;28;20218;-71
2021/12/27 12:11:05;;;;;;;6.00;1.30;;;17.10;99.90;;;;;;5002334;28;20189;-70
2021/12/27 12:13:41;;;;;;;13.73;1.87;;;17.10;99.90;;;;;;5012396;28;20606;-71
2021/12/27 12:16:17;;;;;;;5.60;1.50;;;17.20;99.90;;;;;;5013387;28;20169;-69
2021/12/27 12:19:09;;;;;;;6.17;1.63;;;17.10;99.90;;;;;;5013272;28;20181;-70
2021/12/27 12:21:51;;;;;;;8.57;1.17;;;17.20;99.90;;;;;;5012312;28;20186;-73
2021/12/27 12:24:22;;;;;;;10.13;1.70;;;17.10;99.90;;;;;;5013545;28;20216;-71
2021/12/27 12:26:54;;;;;;;10.07;2.27;;;17.10;99.90;;;;;;5013372;28;20178;-73
2021/12/27 12:29:23;;;;;;;8.43;1.57;;;17.10;99.90;;;;;;5013036;28;20646;-71
2021/12/27 12:32:02;;;;;;;6.20;1.53;;;17.00;99.90;;;;;;4995693;28;20641;-72
2021/12/27 12:34:29;;;;;;;5.27;1.87;;;17.00;99.90;;;;;;5013526;28;20268;-72
2021/12/27 12:37:03;;;;;;;5.63;1.70;;;16.80;99.90;;;;;;5013863;28;20755;-69
2021/12/27 12:39:44;;;;;;;4.30;1.23;;;16.80;99.90;;;;;;4996629;28;20185;-69
2021/12/27 12:42:16;;;;;;;8.47;1.70;;;16.80;99.90;;;;;;4996346;28;20178;-69
2021/12/27 12:44:47;;;;;;;8.50;1.80;;;16.90;99.90;;;;;;5013411;28;20320;-69
2021/12/27 12:47:15;;;;;;;14.87;2.20;;;16.80;99.90;;;;;;5012893;28;20206;-71
2021/12/27 12:49:42;;;;;;;9.70;1.90;;;16.80;99.90;;;;;;4993731;28;20190;-71
2021/12/27 12:52:11;;;;;;;9.20;1.57;;;16.70;99.90;;;;;;4976270;28;20186;-73
2021/12/27 12:54:41;;;;;;;9.77;1.93;;;16.80;99.90;;;;;;4993608;28;20775;-72
2021/12/27 12:57:20;;;;;;;6.87;1.40;;;16.80;99.90;;;;;;4993544;28;20589;-70
2021/12/27 12:59:58;;;;;;;6.00;1.60;;;16.80;99.90;;;;;;4993757;28;20206;-71
2021/12/27 13:02:31;;;;;;;9.33;1.50;;;16.80;99.90;;;;;;4993618;28;20183;-71